Map

Track Data

SID SEASON NUMBER BASIN SUBBASIN NAME ISO_TIME NATURE LAT LON WMO_WIND WMO_PRES WMO_AGENCY TRACK_TYPE DIST2LAND LANDFALL IFLAG USA_AGENCY USA_ATCF_ID USA_LAT USA_LON USA_RECORD USA_STATUS USA_WIND USA_PRES USA_SSHS USA_R34_NE USA_R34_SE USA_R34_SW USA_R34_NW USA_R50_NE USA_R50_SE USA_R50_SW USA_R50_NW USA_R64_NE USA_R64_SE USA_R64_SW USA_R64_NW USA_POCI USA_ROCI USA_RMW USA_EYE TOKYO_LAT TOKYO_LON TOKYO_GRADE TOKYO_WIND TOKYO_PRES TOKYO_R50_DIR TOKYO_R50_LONG TOKYO_R50_SHORT TOKYO_R30_DIR TOKYO_R30_LONG TOKYO_R30_SHORT TOKYO_LAND CMA_LAT CMA_LON CMA_CAT CMA_WIND CMA_PRES HKO_LAT HKO_LON HKO_CAT HKO_WIND HKO_PRES NEWDELHI_LAT NEWDELHI_LON NEWDELHI_GRADE NEWDELHI_WIND NEWDELHI_PRES NEWDELHI_CI NEWDELHI_DP NEWDELHI_POCI REUNION_LAT REUNION_LON REUNION_TYPE REUNION_WIND REUNION_PRES REUNION_TNUM REUNION_CI REUNION_RMW REUNION_R34_NE REUNION_R34_SE REUNION_R34_SW REUNION_R34_NW REUNION_R50_NE REUNION_R50_SE REUNION_R50_SW REUNION_R50_NW REUNION_R64_NE REUNION_R64_SE REUNION_R64_SW REUNION_R64_NW BOM_LAT BOM_LON BOM_TYPE BOM_WIND BOM_PRES BOM_TNUM BOM_CI BOM_RMW BOM_R34_NE BOM_R34_SE BOM_R34_SW BOM_R34_NW BOM_R50_NE BOM_R50_SE BOM_R50_SW BOM_R50_NW BOM_R64_NE BOM_R64_SE BOM_R64_SW BOM_R64_NW BOM_ROCI BOM_POCI BOM_EYE BOM_POS_METHOD BOM_PRES_METHOD NADI_LAT NADI_LON NADI_CAT NADI_WIND NADI_PRES WELLINGTON_LAT WELLINGTON_LON WELLINGTON_WIND WELLINGTON_PRES DS824_LAT DS824_LON DS824_STAGE DS824_WIND DS824_PRES TD9636_LAT TD9636_LON TD9636_STAGE TD9636_WIND TD9636_PRES TD9635_LAT TD9635_LON TD9635_WIND TD9635_PRES TD9635_ROCI NEUMANN_LAT NEUMANN_LON NEUMANN_CLASS NEUMANN_WIND NEUMANN_PRES MLC_LAT MLC_LON MLC_CLASS MLC_WIND MLC_PRES USA_GUST BOM_GUST BOM_GUST_PER REUNION_GUST REUNION_GUST_PER USA_SEAHGT USA_SEARAD_NE USA_SEARAD_SE USA_SEARAD_SW USA_SEARAD_NW STORM_SPEED STORM_DIR
1958290N13082 1958 98 NI BB NOT_NAMED 1958-10-16 18:00:00 TS 13.1000 82.4000 main 228 228 O________O____ jtwc_io IO101958 13.1000 82.4000 -1 13.1000 82.4000 TC 1 0
1958290N13082 1958 98 NI BB NOT_NAMED 1958-10-16 21:00:00 TS 13.1425 82.4000 main 228 227 P________P____ IO101958 13.1425 82.4000 -1 13.1425 82.4000 TC 1 0
1958290N13082 1958 98 NI BB NOT_NAMED 1958-10-17 00:00:00 TS 13.2000 82.4000 main 227 227 O________O____ jtwc_io IO101958 13.2000 82.4000 -1 13.2000 82.4000 TC 25 1 0
1958290N13082 1958 98 NI BB NOT_NAMED 1958-10-17 03:00:00 TS 13.2867 82.4000 main 227 227 P________PO___ IO101958 13.2850 82.4000 -1 13.2850 82.4000 TC 25 13.3000 82.4000 1 2 0
1958290N13082 1958 98 NI BB NOT_NAMED 1958-10-17 06:00:00 TS 13.4025 82.3985 main 227 227 O________OP___ jtwc_io IO101958 13.4000 82.4000 -1 13.4000 82.4000 TC 25 13.4125 82.3922 1 3 355
1958290N13082 1958 98 NI BB NOT_NAMED 1958-10-17 09:00:00 TS 13.5391 82.3966 main 227 226 P________PP___ IO101958 13.5425 82.4000 -1 13.5425 82.4000 TC 25 13.5300 82.3876 1 3 0
1958290N13082 1958 98 NI BB NOT_NAMED 1958-10-17 12:00:00 TS 13.6858 82.3964 main 226 226 O________OP___ jtwc_io IO101958 13.7000 82.4000 -1 13.7000 82.4000 TC 25 13.6575 82.3891 1 3 0
1958290N13082 1958 98 NI BB NOT_NAMED 1958-10-17 15:00:00 TS 13.8333 82.3950 main 226 226 P________PO___ IO101958 13.8500 82.3925 -1 13.8500 82.3925 TC 25 13.8000 82.4000 1 3 4
1958290N13082 1958 98 NI BB NOT_NAMED 1958-10-17 18:00:00 TS 13.9864 82.4073 main 227 227 O________OP___ jtwc_io IO101958 14.0000 82.4000 -1 14.0000 82.4000 TC 25 13.9591 82.4218 1 3 9
1958290N13082 1958 98 NI BB NOT_NAMED 1958-10-17 21:00:00 TS 14.1508 82.4500 main 231 231 P________PP___ IO101958 14.1650 82.4500 -1 14.1650 82.4500 TC 25 14.1225 82.4499 1 3 15
1958290N13082 1958 98 NI BB NOT_NAMED 1958-10-18 00:00:00 TS 14.2916 82.4927 main 232 224 O________OP___ jtwc_io IO101958 14.3000 82.5000 -1 14.3000 82.5000 TC 25 14.2747 82.4781 1 2 15
1958290N13082 1958 98 NI BB NOT_NAMED 1958-10-18 03:00:00 TS 14.3767 82.5050 main 224 224 P________PO___ IO101958 14.3650 82.5075 -1 14.3650 82.5075 TC 25 14.4000 82.5000 1 1 11
1958290N13082 1958 98 NI BB NOT_NAMED 1958-10-18 06:00:00 TS 14.4262 82.5038 main 224 217 O________OP___ jtwc_io IO101958 14.4000 82.5000 -1 14.4000 82.5000 TC 25 14.4787 82.5113 1 1 0
1958290N13082 1958 98 NI BB NOT_NAMED 1958-10-18 09:00:00 TS 14.4767 82.5050 main 217 217 P________PP___ IO101958 14.4500 82.5000 -1 14.4500 82.5000 TC 25 14.5300 82.5150 1 1 9
1958290N13082 1958 98 NI BB NOT_NAMED 1958-10-18 12:00:00 TS 14.5221 82.5038 main 217 208 O________OP___ jtwc_io IO101958 14.5000 82.5000 -1 14.5000 82.5000 TC 25 14.5662 82.5113 1 1 0
1958290N13082 1958 98 NI BB NOT_NAMED 1958-10-18 15:00:00 TS 14.5667 82.5050 main 208 208 P________PO___ IO101958 14.5500 82.5075 -1 14.5500 82.5075 TC 25 14.6000 82.5000 1 1 0
1958290N13082 1958 98 NI BB NOT_NAMED 1958-10-18 18:00:00 TS 14.6126 82.4927 main 208 198 O________OP___ jtwc_io IO101958 14.6000 82.5000 -1 14.6000 82.5000 TC 25 14.6378 82.4781 1 1 327
1958290N13082 1958 98 NI BB NOT_NAMED 1958-10-18 21:00:00 TS 14.6542 82.4500 main 198 193 P________PP___ IO101958 14.6425 82.4500 -1 14.6425 82.4500 TC 25 14.6775 82.4500 1 1 321
1958290N13082 1958 98 NI BB NOT_NAMED 1958-10-19 00:00:00 TS 14.7095 82.4073 main 193 183 O________OP___ jtwc_io IO101958 14.7000 82.4000 -1 14.7000 82.4000 TC 25 14.7284 82.4219 1 1 337
1958290N13082 1958 98 NI BB NOT_NAMED 1958-10-19 03:00:00 TS 14.7900 82.3950 main 183 173 P________PO___ IO101958 14.7850 82.3925 -1 14.7850 82.3925 TC 25 14.8000 82.4000 1 2 355
1958290N13082 1958 98 NI BB NOT_NAMED 1958-10-19 06:00:00 TS 14.9025 82.3989 main 173 163 O________OP___ jtwc_io IO101958 14.9000 82.4000 -1 14.9000 82.4000 TC 25 14.9075 82.3969 1 3 6
1958290N13082 1958 98 NI BB NOT_NAMED 1958-10-19 09:00:00 TS 15.0450 82.4000 main 163 144 P________PP___ IO101958 15.0500 82.4000 -1 15.0500 82.4000 TC 25 15.0350 82.4000 1 3 3
1958290N13082 1958 98 NI BB NOT_NAMED 1958-10-19 12:00:00 TS 15.1900 82.4010 main 144 134 O________OP___ jtwc_io IO101958 15.2000 82.4000 -1 15.2000 82.4000 TC 25 15.1700 82.4031 1 3 0
1958290N13082 1958 98 NI BB NOT_NAMED 1958-10-19 15:00:00 TS 15.3050 82.4050 main 134 124 P________PO___ IO101958 15.3075 82.4075 -1 15.3075 82.4075 TC 25 15.3000 82.4000 1 2 356
1958290N13082 1958 98 NI BB NOT_NAMED 1958-10-19 18:00:00 TS 15.4061 82.3944 main 124 114 O________OP___ jtwc_io IO101958 15.4000 82.4000 -1 15.4000 82.4000 TC 25 15.4153 82.3860 1 2 348
1958290N13082 1958 98 NI BB NOT_NAMED 1958-10-19 21:00:00 TS 15.5061 82.3611 main 114 99 P________PP___ IO101958 15.4975 82.3600 -1 15.4975 82.3600 TC 25 15.5175 82.3625 1 2 339
1958290N13082 1958 98 NI BB NOT_NAMED 1958-10-20 00:00:00 TS 15.6055 82.3164 main 99 89 O________OP___ jtwc_io IO101958 15.6000 82.3000 -1 15.6000 82.3000 TC 25 15.6109 82.3329 1 2 344
1958290N13082 1958 98 NI BB NOT_NAMED 1958-10-20 03:00:00 NR 15.7000 82.3000 main 89 __________O___ IO101958 -1 TC 15.7000 82.3000 1 2 347

About IBTrACS Database

This database is a web-friendly format of International Best Track Archive for Climate Stewardship (IBTrACS), a global best track data archive curated by NOAA dating back to 1842.

Updated: 2021-11-26